Wood Lake, Nebraska
Current Conditions -  °F | °C
As of 8:55 PM on Sunday 21 Dec 2014 (Local Time) from KANW Reporting Station
Overcast Overcast  
Wind Chill: 25°   Ceiling: 6500
Heat Index: 35°   Visibility: 7mi
Dew Point: 32°   Wind: 15mph
Humidity: 91%   Direction: 180°S
Pressure: 29.44"   Gusts: NA
Location:  42.64°N, 100.24°W
Report Text: KANW 220255Z AUTO 18013KT 7SM SCT046 BKN065 OVC120 02/00 A2944 RMK AO2 T00160002
Loading
Personal Weather Stations






























Interactive Weather Map New forecast layout! Learn more

10-Day Weather Forecast

Advertisements
Track Severe Weather on mobile